This is the latest recevied weather packets stored in our database for station/object KE8YTO. If no packets are shown the sender has not sent any weather packets the latest 10 day(s).
| Time | Temp. | Humidity | Pressure | Rain* | Wind** | Luminosity | Snow |
|---|---|---|---|---|---|---|---|
| 1777276817 | 10° C | 64% | 993.9 hPa | 0 mm | - | - | - |
| 1777275030 | 10° C | 65% | 993.9 hPa | 0 mm | - | - | - |
| 1777274417 | 10° C | 65% | 993.9 hPa | 0 mm | - | - | - |
| 1777273822 | 10° C | 65% | 994.1 hPa | 0 mm | - | - | - |
| 1777269619 | 11.11° C | 64% | 994.5 hPa | 0 mm | - | - | - |
| 1777265418 | 12.22° C | 65% | 994.4 hPa | 0 mm | - | - | - |
| 1777263632 | 12.78° C | 65% | 994.4 hPa | 0 mm | - | - | - |
| 1777261236 | 13.89° C | 65% | 994.3 hPa | 0 mm | - | - | - |
| 1777254020 | 16.67° C | 56% | 994 hPa | 0 mm | - | - | - |
| 1777252830 | 17.22° C | 55% | 993.8 hPa | 0 mm | - | - | - |
| 1777251026 | 17.78° C | 53% | 993.8 hPa | 0 mm | - | - | - |
| 1777248628 | 19.44° C | 51% | 993.5 hPa | 0 mm | - | - | - |
| 1777242027 | 21.11° C | 46% | 993.4 hPa | 0 mm | - | - | - |
| 1777240860 | 21.67° C | 46% | 993.5 hPa | 0 mm | - | - | - |
| 1777239649 | 21.67° C | 45% | 993.7 hPa | 0 mm | - | - | - |
| 1777236022 | 21.11° C | 48% | 994.2 hPa | 0 mm | - | - | - |
| 1777233017 | 20.56° C | 48% | 994.9 hPa | 0 mm | - | - | - |
| 1777230018 | 20.56° C | 49% | 995.1 hPa | 0 mm | - | - | - |
| 1777228827 | 19.44° C | 52% | 995.1 hPa | 0 mm | - | - | - |
| 1777227639 | 19.44° C | 53% | 995.2 hPa | 0 mm | - | - | - |
| 1777226449 | 18.89° C | 53% | 995.3 hPa | 0 mm | - | - | - |
| 1777219253 | 15° C | 62% | 996.4 hPa | 0 mm | - | - | - |
| 1777207222 | 8.33° C | 84% | 996.8 hPa | 0 mm | - | - | - |
| 1777199431 | 6.67° C | 86% | 995.4 hPa | 0 mm | - | - | - |
| 1777197032 | 6.67° C | 85% | 994.9 hPa | 0 mm | - | - | - |
* Rain latest hour (hover to see other rain measurements)
** Current wind speed in m/s (hover to see current wind gust speed)